Briefing drone pour Tournon-sur-rhone

Rechercher une autre localisation

Conditions de vol :


Nous sommes le : Samedi 16 janvier 2021
Il est 11:17 UTC (12:17 LT)

Lever de soleil : 06:48 UTC (07:48 LT)
Coucher de soleil : 16:52 UTC (17:52 LT)

Météo

L'essentiel des conditions de vol

VIGILANCE MÉTÉO FRANCE - Ardèche (07)
Vigilance Jaune : Neige-verglas
CARTES DES FRONTS
METAR de LFLU
LFLU 161100Z AUTO 35019KT 9999 OVC027 02/M03 Q1026

Date d'émission: 16/01/2021
Heure d'émission: 11:00 UTC
Vent: 350° pour 19 KT (35 km/h)
Visibilité horizontale: > 10 km
Plafond :
- Couvert à 2700ft (823m)
Température: 2 °C
Point de rosée: -3 °C
Humidité: 69%
Pression (QNH): 1026 hPa
Prévision 24h pour Valence (10 km)
Vent : 357° pour 1 KT (5 km/h)
Temperature Maxi: 2 °C
Temperature Min: 2 °C
Humidité : 95%
Condition : Légère pluie



Warning: count(): Parameter must be an array or an object that implements Countable in /homepages/6/d509196549/htdocs/droneoxygene/briefing.php on line 743
WEBCAM POUR TOURNON-SUR-RHONE

Réglementation

Voler en sécurité

CARTES AERONAUTIQUE 1/500.000
CARTES VAC (LFLU)
SUP AIP




Chargement des AIP...
NOTAM (TOURNON-SUR-RHONE + Terrain à proximité / FIR )




Chargement des NOTAMS...
CONTACT PREFECTURE 07


Avertissement : Les données mises à disposition sont indicatives. Oxygène Drone ne pourra être tenu responsable de dégâts causés aux biens et aux personnes.